Time;durP1;ratioP1;P1;durP2;ratioP2;P2;SDS_P1;SDS_P2;PMS_P1;PMS_P2;Temp;Humidity;BMP_temperature;BMP_pressure;BME280_temperature;BME280_humidity;BME280_pressure;Samples;Min_cycle;Max_cycle;Signal;HPM_P1;HPM_P2
2021/07/30 00:00:09;;;;;;;2.67;2.47;;;24.30;57.50;;;;;;5059526;28;20025;-56
2021/07/30 00:02:35;;;;;;;2.30;2.10;;;24.30;57.50;;;;;;5044201;28;20033;-56
2021/07/30 00:05:01;;;;;;;2.70;2.50;;;24.30;57.50;;;;;;5060601;28;20059;-55
2021/07/30 00:07:27;;;;;;;2.53;2.33;;;24.20;57.50;;;;;;5081326;28;20044;-56
2021/07/30 00:09:53;;;;;;;2.35;2.15;;;24.20;57.50;;;;;;5085196;28;20087;-57
2021/07/30 00:12:19;;;;;;;2.10;1.90;;;24.20;57.50;;;;;;5103382;28;20028;-56
2021/07/30 00:14:45;;;;;;;2.70;2.50;;;24.20;57.50;;;;;;5085183;28;20065;-56
2021/07/30 00:17:12;;;;;;;2.88;2.63;;;24.20;57.60;;;;;;5103352;28;20032;-57
2021/07/30 00:19:38;;;;;;;3.72;2.50;;;24.20;57.80;;;;;;5103361;28;20024;-59
2021/07/30 00:22:04;;;;;;;2.70;2.50;;;24.10;57.80;;;;;;5103313;28;20148;-57
2021/07/30 00:24:30;;;;;;;2.43;2.23;;;24.10;57.90;;;;;;5103389;28;20020;-58
2021/07/30 00:26:56;;;;;;;2.55;2.33;;;24.10;57.90;;;;;;5103025;28;20051;-55
2021/07/30 00:29:22;;;;;;;2.50;2.30;;;24.00;57.80;;;;;;5103335;28;20031;-56
2021/07/30 00:31:49;;;;;;;2.63;2.42;;;24.00;58.00;;;;;;5103365;28;20052;-56
2021/07/30 00:34:15;;;;;;;2.78;2.58;;;24.00;58.00;;;;;;5103256;28;20047;-55
2021/07/30 00:36:41;;;;;;;3.00;2.50;;;24.00;57.90;;;;;;5102858;28;20020;-54
2021/07/30 00:39:07;;;;;;;2.63;2.42;;;24.00;57.90;;;;;;5102922;28;20040;-56
2021/07/30 00:41:39;;;;;;;2.75;2.55;;;23.90;57.70;;;;;;5103419;28;20016;-54
2021/07/30 00:44:08;;;;;;;2.53;2.33;;;23.90;57.70;;;;;;5103007;28;20095;-56
2021/07/30 00:46:35;;;;;;;2.78;2.58;;;23.90;57.90;;;;;;5103026;28;20055;-55
2021/07/30 00:49:01;;;;;;;2.55;2.35;;;23.90;57.70;;;;;;5085171;28;20028;-55
2021/07/30 00:51:27;;;;;;;2.83;2.60;;;23.90;57.90;;;;;;5103220;28;20117;-54
2021/07/30 00:53:54;;;;;;;3.10;2.80;;;23.80;58.00;;;;;;5084744;28;20046;-54
2021/07/30 00:56:21;;;;;;;2.67;2.47;;;23.80;58.20;;;;;;5102896;28;20092;-55
2021/07/30 00:58:47;;;;;;;2.85;2.55;;;23.80;58.40;;;;;;5102937;28;20051;-55
2021/07/30 01:01:13;;;;;;;2.70;2.50;;;23.80;58.70;;;;;;5102883;28;20052;-55
2021/07/30 01:03:40;;;;;;;3.28;2.97;;;23.70;58.90;;;;;;5102955;28;20024;-54
2021/07/30 01:06:06;;;;;;;2.65;2.45;;;23.70;59.00;;;;;;5102675;28;20028;-55
2021/07/30 01:08:32;;;;;;;2.70;2.50;;;23.70;59.10;;;;;;5102729;28;20031;-55
2021/07/30 01:10:58;;;;;;;2.88;2.63;;;23.70;59.20;;;;;;5104482;28;20046;-55
2021/07/30 01:13:24;;;;;;;2.53;2.33;;;23.70;59.60;;;;;;5106940;28;20028;-55
2021/07/30 01:15:51;;;;;;;2.90;2.70;;;23.70;59.50;;;;;;5106553;28;20035;-55
2021/07/30 01:18:17;;;;;;;2.60;2.40;;;23.70;59.30;;;;;;5106643;28;20047;-55
2021/07/30 01:20:44;;;;;;;3.08;2.78;;;23.60;59.20;;;;;;5106808;28;20121;-55
2021/07/30 01:23:10;;;;;;;3.13;2.83;;;23.60;59.00;;;;;;5106541;28;20031;-53
2021/07/30 01:25:36;;;;;;;2.40;2.20;;;23.60;59.10;;;;;;5106484;28;20081;-55
2021/07/30 01:28:03;;;;;;;3.37;3.07;;;23.60;59.00;;;;;;5106612;28;20048;-55
2021/07/30 01:30:30;;;;;;;2.60;2.40;;;23.50;59.10;;;;;;5088412;28;20514;-55
2021/07/30 01:32:56;;;;;;;;;;;23.50;59.10;;;;;;5107146;28;20048;-55
2021/07/30 01:35:22;;;;;;;2.72;2.53;;;23.50;61.60;;;;;;5106535;28;19918;-53
2021/07/30 01:37:48;;;;;;;2.97;2.78;;;23.50;59.20;;;;;;5106055;28;20032;-55
2021/07/30 01:40:15;;;;;;;2.78;2.53;;;23.50;59.30;;;;;;5106225;28;20075;-53
2021/07/30 01:42:41;;;;;;;2.72;2.53;;;23.50;59.30;;;;;;5106160;28;20719;-54
2021/07/30 01:45:08;;;;;;;2.77;2.57;;;23.40;59.80;;;;;;5106211;28;20107;-55
2021/07/30 01:47:35;;;;;;;2.97;2.67;;;23.40;59.80;;;;;;5106096;28;20024;-55
2021/07/30 01:50:01;;;;;;;3.25;2.95;;;23.40;60.10;;;;;;5106072;28;20031;-53
2021/07/30 01:52:28;;;;;;;2.83;2.63;;;23.40;60.30;;;;;;5105692;28;21259;-54
2021/07/30 01:54:54;;;;;;;2.92;2.70;;;23.40;60.30;;;;;;5105941;28;20020;-55
2021/07/30 01:57:20;;;;;;;3.17;2.88;;;23.30;60.20;;;;;;5106062;28;20038;-55
2021/07/30 01:59:46;;;;;;;2.58;2.38;;;23.30;59.80;;;;;;5106007;28;20044;-56
2021/07/30 02:02:12;;;;;;;2.75;2.55;;;23.30;59.60;;;;;;5105420;28;20048;-55
2021/07/30 02:04:38;;;;;;;2.85;2.65;;;23.30;59.60;;;;;;5105911;28;20020;-55
2021/07/30 02:07:05;;;;;;;3.70;3.30;;;23.30;60.10;;;;;;5105550;28;20479;-52
2021/07/30 02:09:31;;;;;;;2.90;2.70;;;23.30;61.50;;;;;;5105675;28;20032;-55
2021/07/30 02:11:57;;;;;;;2.87;2.67;;;23.30;62.00;;;;;;5105513;28;20096;-55
2021/07/30 02:14:26;;;;;;;2.95;2.75;;;23.30;62.30;;;;;;5105783;28;20081;-53
2021/07/30 02:16:58;;;;;;;3.55;3.25;;;23.30;62.10;;;;;;5105549;28;20028;-54
2021/07/30 02:19:24;;;;;;;3.40;3.10;;;23.40;62.30;;;;;;5105552;28;20039;-55
2021/07/30 02:21:52;;;;;;;2.92;2.72;;;23.40;62.30;;;;;;5104633;28;20035;-55
2021/07/30 02:24:18;;;;;;;3.28;2.97;;;23.40;62.00;;;;;;5094936;28;20078;-54
2021/07/30 02:26:44;;;;;;;3.13;2.83;;;23.40;62.40;;;;;;5085335;28;20033;-53
2021/07/30 02:29:10;;;;;;;3.13;2.83;;;23.40;62.00;;;;;;5096974;28;20031;-54
2021/07/30 02:31:37;;;;;;;3.40;3.10;;;23.40;62.30;;;;;;5105083;28;20031;-55
2021/07/30 02:34:03;;;;;;;3.25;2.95;;;23.50;62.20;;;;;;5105402;28;20263;-55
2021/07/30 02:36:29;;;;;;;3.10;2.80;;;23.50;62.40;;;;;;5105353;28;20062;-55
2021/07/30 02:38:55;;;;;;;3.67;3.38;;;23.50;62.10;;;;;;5104843;28;20689;-54
2021/07/30 02:41:22;;;;;;;3.67;3.38;;;23.50;62.10;;;;;;5104885;28;20058;-55
2021/07/30 02:43:48;;;;;;;3.55;3.25;;;23.50;62.20;;;;;;5105098;28;20557;-55
2021/07/30 02:46:16;;;;;;;3.47;3.17;;;23.50;62.30;;;;;;5105256;28;20032;-54
2021/07/30 02:48:46;;;;;;;3.20;2.90;;;23.50;62.20;;;;;;5105043;28;20059;-54
2021/07/30 02:51:13;;;;;;;3.33;2.92;;;23.60;62.20;;;;;;5105063;28;20036;-55
2021/07/30 02:53:39;;;;;;;3.25;2.95;;;23.60;62.30;;;;;;5104324;28;20020;-54
2021/07/30 02:56:06;;;;;;;3.70;3.40;;;23.60;62.30;;;;;;5105085;28;20040;-54
2021/07/30 02:58:32;;;;;;;3.30;3.00;;;23.60;62.50;;;;;;5104860;28;20104;-55
2021/07/30 03:00:59;;;;;;;3.20;2.90;;;23.60;62.30;;;;;;5104826;28;20048;-54
2021/07/30 03:03:25;;;;;;;3.60;3.30;;;23.60;62.50;;;;;;5104439;28;20035;-54
2021/07/30 03:05:52;;;;;;;3.58;3.28;;;23.60;62.40;;;;;;5104787;28;20112;-54
2021/07/30 03:08:18;;;;;;;3.53;3.22;;;23.60;62.30;;;;;;5104261;28;20024;-54
2021/07/30 03:10:46;;;;;;;3.92;3.58;;;23.70;62.40;;;;;;5104630;28;20032;-54
2021/07/30 03:13:12;;;;;;;4.13;3.72;;;23.70;62.40;;;;;;5104409;28;20032;-51
2021/07/30 03:15:38;;;;;;;3.50;3.20;;;23.70;62.30;;;;;;5104550;28;20471;-54
2021/07/30 03:18:04;;;;;;;3.65;3.35;;;23.70;62.20;;;;;;5104497;28;20032;-54
2021/07/30 03:20:30;;;;;;;3.83;3.53;;;23.70;62.30;;;;;;5104266;28;20020;-55
2021/07/30 03:22:56;;;;;;;3.80;3.50;;;23.80;62.30;;;;;;5103975;28;20150;-55
2021/07/30 03:25:23;;;;;;;3.70;3.40;;;23.80;62.40;;;;;;5104261;28;20469;-51
2021/07/30 03:27:49;;;;;;;3.42;3.13;;;23.80;62.50;;;;;;5104454;28;20092;-55
2021/07/30 03:30:15;;;;;;;3.80;3.40;;;23.80;62.50;;;;;;5104209;28;20023;-53
2021/07/30 03:32:42;;;;;;;3.60;3.30;;;23.80;62.60;;;;;;5104117;28;20028;-55
2021/07/30 03:35:09;;;;;;;3.70;3.40;;;23.80;62.30;;;;;;5104372;28;20056;-54
2021/07/30 03:37:36;;;;;;;3.58;3.28;;;23.80;62.50;;;;;;5103868;28;20084;-53
2021/07/30 03:40:02;;;;;;;3.88;3.58;;;23.80;62.50;;;;;;5103716;28;20031;-54
2021/07/30 03:42:28;;;;;;;4.13;3.72;;;23.80;62.60;;;;;;5082909;28;20026;-50
2021/07/30 03:44:54;;;;;;;9.35;3.95;;;23.80;62.60;;;;;;5103267;28;20059;-57
2021/07/30 03:47:20;;;;;;;4.35;3.95;;;23.80;63.20;;;;;;5100151;28;20050;-48
2021/07/30 03:49:47;;;;;;;6.57;3.60;;;23.90;63.40;;;;;;5101116;28;20101;-47
2021/07/30 03:52:13;;;;;;;4.80;4.10;;;23.90;63.80;;;;;;5103049;28;20495;-50
2021/07/30 03:54:39;;;;;;;4.30;3.85;;;23.90;63.70;;;;;;5102892;28;20110;-58
2021/07/30 03:57:05;;;;;;;4.93;4.07;;;24.00;63.60;;;;;;5088589;28;20028;-49
2021/07/30 03:59:32;;;;;;;7.97;3.80;;;24.00;63.60;;;;;;5102513;28;20127;-50
2021/07/30 04:01:58;;;;;;;7.35;4.05;;;24.00;63.60;;;;;;5102789;28;20040;-48
2021/07/30 04:04:24;;;;;;;8.75;4.47;;;24.00;63.70;;;;;;5101438;28;20048;-51
2021/07/30 04:06:50;;;;;;;6.18;4.05;;;24.00;63.80;;;;;;5082980;28;20028;-45
2021/07/30 04:09:16;;;;;;;21.98;6.82;;;24.00;64.70;;;;;;5102234;28;20035;-46
2021/07/30 04:11:42;;;;;;;264.58;64.15;;;24.10;65.30;;;;;;5101670;28;20043;-44
2021/07/30 04:14:09;;;;;;;212.43;51.70;;;24.10;66.70;;;;;;5084253;28;20032;-49
2021/07/30 04:16:36;;;;;;;175.93;43.80;;;24.10;66.10;;;;;;5076208;28;20032;-48
2021/07/30 04:19:03;;;;;;;146.75;39.42;;;24.20;66.20;;;;;;5103103;28;20043;-48
2021/07/30 04:21:29;;;;;;;122.77;34.73;;;24.20;65.90;;;;;;5103569;28;20429;-48
2021/07/30 04:24:01;;;;;;;102.67;28.80;;;24.30;65.70;;;;;;5085997;28;20507;-49
2021/07/30 04:26:28;;;;;;;88.03;24.50;;;24.30;65.70;;;;;;5101204;28;20279;-48
2021/07/30 04:28:54;;;;;;;78.70;23.80;;;24.30;65.70;;;;;;5103331;28;20016;-48
2021/07/30 04:31:20;;;;;;;72.47;22.03;;;24.30;65.60;;;;;;5103418;28;20169;-47
2021/07/30 04:33:47;;;;;;;59.33;18.75;;;24.30;65.70;;;;;;5101853;28;20024;-50
2021/07/30 04:36:14;;;;;;;47.60;16.55;;;24.40;65.40;;;;;;5103357;28;20388;-47
2021/07/30 04:38:41;;;;;;;46.28;15.85;;;24.40;65.30;;;;;;5102392;28;20040;-46
2021/07/30 04:41:07;;;;;;;;;;;24.40;65.30;;;;;;5102089;28;20034;-47
2021/07/30 04:43:33;;;;;;;37.80;14.50;;;24.40;65.30;;;;;;5101165;28;19947;-47
2021/07/30 04:46:00;;;;;;;52.28;15.43;;;24.50;65.40;;;;;;5093908;28;20044;-46
2021/07/30 04:48:26;;;;;;;35.83;14.05;;;24.50;65.30;;;;;;5108575;28;20040;-46
2021/07/30 04:50:53;;;;;;;34.13;13.43;;;24.50;65.20;;;;;;5108206;28;20020;-48
2021/07/30 04:53:19;;;;;;;34.40;12.40;;;24.50;65.20;;;;;;5107533;28;20028;-52
2021/07/30 04:55:45;;;;;;;26.83;11.20;;;24.50;65.20;;;;;;5106720;28;20020;-53
2021/07/30 04:58:11;;;;;;;25.75;12.18;;;24.50;65.10;;;;;;5105887;28;20044;-54
2021/07/30 05:00:38;;;;;;;26.97;11.40;;;24.60;65.20;;;;;;5108366;28;20059;-51
2021/07/30 05:03:04;;;;;;;25.80;11.25;;;24.60;65.20;;;;;;5108932;28;20020;-51
2021/07/30 05:05:30;;;;;;;27.35;11.57;;;24.60;65.10;;;;;;5108952;28;20016;-47
2021/07/30 05:07:56;;;;;;;26.00;11.30;;;24.60;65.10;;;;;;5109056;28;20093;-48
2021/07/30 05:10:22;;;;;;;24.55;10.25;;;24.60;65.00;;;;;;5086953;28;20268;-52
2021/07/30 05:12:49;;;;;;;18.08;9.15;;;24.60;65.00;;;;;;5109898;28;20024;-49
2021/07/30 05:15:15;;;;;;;22.80;10.35;;;24.60;65.00;;;;;;5109446;28;20016;-51
2021/07/30 05:17:41;;;;;;;17.20;9.38;;;24.60;64.90;;;;;;5091696;28;20081;-49
2021/07/30 05:20:10;;;;;;;17.33;8.80;;;24.60;64.90;;;;;;5105765;28;20547;-51
2021/07/30 05:22:39;;;;;;;19.20;9.32;;;24.60;64.90;;;;;;5108365;28;20032;-49
2021/07/30 05:25:05;;;;;;;16.23;8.55;;;24.60;64.80;;;;;;5107142;28;20028;-49
2021/07/30 05:27:32;;;;;;;16.27;8.52;;;24.70;65.70;;;;;;5108886;28;20027;-48
2021/07/30 05:30:01;;;;;;;17.35;8.55;;;24.70;64.90;;;;;;5074154;28;20044;-49
2021/07/30 05:32:27;;;;;;;15.05;7.93;;;24.70;64.80;;;;;;5101995;28;20032;-48
2021/07/30 05:34:53;;;;;;;14.40;8.60;;;24.70;64.90;;;;;;5108601;28;20488;-48
2021/07/30 05:37:20;;;;;;;14.02;8.05;;;24.70;64.80;;;;;;5105515;28;20036;-48
2021/07/30 05:39:46;;;;;;;15.90;8.30;;;24.70;64.90;;;;;;5099773;28;20028;-50
2021/07/30 05:42:12;;;;;;;14.75;7.95;;;24.70;64.80;;;;;;5109157;28;20480;-47
2021/07/30 05:44:39;;;;;;;13.15;7.47;;;24.80;64.90;;;;;;5108821;28;20098;-48
2021/07/30 05:47:06;;;;;;;14.73;7.63;;;24.70;64.70;;;;;;5109231;28;20027;-53
2021/07/30 05:49:34;;;;;;;15.27;7.50;;;24.70;64.70;;;;;;5107813;28;20028;-51
2021/07/30 05:52:01;;;;;;;11.88;7.15;;;24.70;64.80;;;;;;5108355;28;20278;-50
2021/07/30 05:54:27;;;;;;;14.43;7.47;;;24.70;64.70;;;;;;5107710;28;20024;-53
2021/07/30 05:56:56;;;;;;;14.25;7.68;;;24.80;64.80;;;;;;5107029;28;20107;-48
2021/07/30 05:59:26;;;;;;;13.07;7.60;;;24.80;64.80;;;;;;5106009;28;20096;-51
2021/07/30 06:01:52;;;;;;;12.25;7.20;;;24.80;64.80;;;;;;5080823;28;20044;-48
2021/07/30 06:04:18;;;;;;;13.55;7.32;;;24.80;64.80;;;;;;5105342;28;20027;-52
2021/07/30 06:06:44;;;;;;;13.88;7.70;;;24.80;64.70;;;;;;5105535;28;20032;-49
2021/07/30 06:09:10;;;;;;;11.80;7.07;;;24.80;64.80;;;;;;5105470;28;20032;-49
2021/07/30 06:11:36;;;;;;;9.83;7.17;;;24.80;64.80;;;;;;5105560;28;20028;-50
2021/07/30 06:14:03;;;;;;;10.98;7.20;;;24.80;64.70;;;;;;5098176;28;20032;-49
2021/07/30 06:16:29;;;;;;;11.32;7.25;;;24.80;64.70;;;;;;5104440;28;20020;-51
2021/07/30 06:18:55;;;;;;;11.25;7.35;;;24.80;64.70;;;;;;5105369;28;20064;-49
2021/07/30 06:21:21;;;;;;;11.38;6.85;;;24.80;64.90;;;;;;5105736;28;20028;-48
2021/07/30 06:23:48;;;;;;;11.20;7.22;;;24.80;64.90;;;;;;5104916;28;20032;-52
2021/07/30 06:26:14;;;;;;;12.65;7.07;;;24.80;64.90;;;;;;5086684;28;20082;-51
2021/07/30 06:28:40;;;;;;;13.53;7.80;;;24.80;64.90;;;;;;5104542;28;20028;-50
2021/07/30 06:31:06;;;;;;;11.05;7.20;;;24.80;64.90;;;;;;5105223;28;20572;-51
2021/07/30 06:33:33;;;;;;;11.55;6.75;;;24.80;64.90;;;;;;5105247;28;20028;-47
2021/07/30 06:35:59;;;;;;;11.57;7.40;;;24.80;65.00;;;;;;5104023;28;20039;-49
2021/07/30 06:38:25;;;;;;;9.88;7.22;;;24.80;65.10;;;;;;5104572;28;20039;-48
2021/07/30 06:40:51;;;;;;;10.38;7.00;;;24.80;65.10;;;;;;5104829;28;20016;-46
2021/07/30 06:43:18;;;;;;;11.05;6.93;;;24.80;65.20;;;;;;5105273;28;20028;-49
2021/07/30 06:45:44;;;;;;;12.23;7.05;;;24.80;65.30;;;;;;5104676;28;20058;-51
2021/07/30 06:48:11;;;;;;;10.35;6.75;;;24.80;65.20;;;;;;5104261;28;20032;-49
2021/07/30 06:50:37;;;;;;;;;;;24.80;65.30;;;;;;5105398;28;20093;-46
2021/07/30 06:53:03;;;;;;;10.52;7.30;;;24.80;65.40;;;;;;5104724;28;19971;-46
2021/07/30 06:55:29;;;;;;;9.98;6.93;;;24.80;65.40;;;;;;5104418;28;20323;-46
2021/07/30 06:57:56;;;;;;;9.40;7.22;;;24.80;65.30;;;;;;5104734;28;20107;-45
2021/07/30 07:00:22;;;;;;;11.35;7.00;;;24.80;65.40;;;;;;5104181;28;20055;-51
2021/07/30 07:02:48;;;;;;;10.32;6.57;;;24.80;65.30;;;;;;5104163;28;20118;-53
2021/07/30 07:05:16;;;;;;;9.27;6.57;;;24.80;65.40;;;;;;5103908;28;20053;-53
2021/07/30 07:07:42;;;;;;;8.25;6.28;;;24.80;65.30;;;;;;5102977;28;20036;-48
2021/07/30 07:10:12;;;;;;;7.97;6.50;;;24.80;65.40;;;;;;5103784;28;20522;-50
2021/07/30 07:12:38;;;;;;;7.97;6.35;;;24.80;65.40;;;;;;5103443;28;20024;-55
2021/07/30 07:15:05;;;;;;;11.43;7.07;;;24.80;65.30;;;;;;5096904;28;20122;-54
2021/07/30 07:17:31;;;;;;;8.70;6.72;;;24.80;65.30;;;;;;5096283;28;20024;-54
2021/07/30 07:19:57;;;;;;;9.50;6.50;;;24.80;65.20;;;;;;5104189;28;20036;-55
2021/07/30 07:22:23;;;;;;;10.43;6.57;;;24.80;65.20;;;;;;5104308;28;20016;-51
2021/07/30 07:24:49;;;;;;;9.55;6.28;;;24.80;65.30;;;;;;5103577;28;20035;-51
2021/07/30 07:27:15;;;;;;;8.88;6.95;;;24.80;65.20;;;;;;5103804;28;20064;-54
2021/07/30 07:29:42;;;;;;;8.48;6.07;;;24.80;65.10;;;;;;5103854;28;20028;-51
2021/07/30 07:32:08;;;;;;;8.27;6.72;;;24.80;65.20;;;;;;5103682;28;20036;-49
2021/07/30 07:34:34;;;;;;;7.13;6.40;;;24.80;65.10;;;;;;5103750;28;20597;-49
2021/07/30 07:37:00;;;;;;;10.38;6.43;;;24.80;65.20;;;;;;5103464;28;20036;-50
2021/07/30 07:39:26;;;;;;;8.45;7.07;;;24.80;65.20;;;;;;5102834;28;20036;-50
2021/07/30 07:41:52;;;;;;;9.35;6.40;;;24.80;65.20;;;;;;5103747;28;20028;-50
2021/07/30 07:44:18;;;;;;;8.80;7.20;;;24.80;65.20;;;;;;5103082;28;20047;-49
2021/07/30 07:46:45;;;;;;;8.25;6.65;;;24.80;65.20;;;;;;5103547;28;20024;-51
2021/07/30 07:49:11;;;;;;;9.00;7.07;;;24.80;65.20;;;;;;5103449;28;20046;-50
2021/07/30 07:51:37;;;;;;;9.40;6.95;;;24.80;65.20;;;;;;5103690;28;20123;-53
2021/07/30 07:54:06;;;;;;;8.20;6.60;;;24.80;65.20;;;;;;5103661;28;20106;-54
2021/07/30 07:56:32;;;;;;;7.72;6.40;;;24.80;65.20;;;;;;5102801;28;20112;-54
2021/07/30 07:58:59;;;;;;;8.40;6.93;;;24.80;65.20;;;;;;5101576;28;20058;-53
2021/07/30 08:01:25;;;;;;;11.15;7.10;;;24.80;65.10;;;;;;5103165;28;20051;-51
2021/07/30 08:03:51;;;;;;;8.35;5.97;;;24.80;65.10;;;;;;5103120;28;20089;-53
2021/07/30 08:06:22;;;;;;;7.38;6.47;;;24.80;65.20;;;;;;5103121;28;20032;-51
2021/07/30 08:08:48;;;;;;;7.85;6.25;;;24.80;65.20;;;;;;5100833;28;20031;-49
2021/07/30 08:11:15;;;;;;;8.10;6.43;;;24.80;65.20;;;;;;5102887;28;20633;-53
2021/07/30 08:13:41;;;;;;;9.30;6.77;;;24.80;65.20;;;;;;5102480;28;20040;-55
2021/07/30 08:16:07;;;;;;;7.93;6.67;;;24.80;65.20;;;;;;5102998;28;20027;-52
2021/07/30 08:18:34;;;;;;;9.47;6.67;;;24.80;65.10;;;;;;5084421;28;20455;-52
2021/07/30 08:21:00;;;;;;;7.38;6.68;;;24.80;65.20;;;;;;5102654;28;20024;-51
2021/07/30 08:23:27;;;;;;;8.00;6.53;;;24.80;65.20;;;;;;5102881;28;20032;-49
2021/07/30 08:25:53;;;;;;;8.00;6.55;;;24.80;65.20;;;;;;5103232;28;20031;-49
2021/07/30 08:28:19;;;;;;;8.77;6.60;;;24.80;65.20;;;;;;5103490;28;20040;-49
2021/07/30 08:30:45;;;;;;;9.10;6.88;;;24.80;65.30;;;;;;5085096;28;20024;-47
2021/07/30 08:33:11;;;;;;;9.65;6.30;;;24.80;65.30;;;;;;5103090;28;20028;-48
2021/07/30 08:35:38;;;;;;;7.38;6.18;;;24.80;65.40;;;;;;5103384;28;20020;-46
2021/07/30 08:38:04;;;;;;;8.88;6.22;;;24.80;65.40;;;;;;5085106;28;20035;-47
2021/07/30 08:40:33;;;;;;;8.60;6.47;;;24.80;65.40;;;;;;5102918;28;20027;-47
2021/07/30 08:43:00;;;;;;;8.38;6.85;;;24.80;65.40;;;;;;5103252;28;20032;-50
2021/07/30 08:45:26;;;;;;;9.93;6.55;;;24.80;65.40;;;;;;5085207;28;20431;-48
2021/07/30 08:47:53;;;;;;;8.48;7.03;;;24.80;65.40;;;;;;5103166;28;20028;-48
2021/07/30 08:50:19;;;;;;;7.93;6.75;;;24.80;65.40;;;;;;5103001;28;20024;-47
2021/07/30 08:52:45;;;;;;;8.10;6.55;;;24.80;65.40;;;;;;5103153;28;20031;-50
2021/07/30 08:55:12;;;;;;;7.90;6.97;;;24.80;65.40;;;;;;5084211;28;20473;-47
2021/07/30 08:57:42;;;;;;;8.63;6.70;;;24.80;65.30;;;;;;5102999;28;20119;-48
2021/07/30 09:00:13;;;;;;;7.18;6.45;;;24.80;65.40;;;;;;5102751;28;20089;-47
2021/07/30 09:02:39;;;;;;;7.35;6.45;;;24.80;65.50;;;;;;5084759;28;20092;-48
2021/07/30 09:05:28;;;;;;;8.98;7.03;;;24.80;65.30;;;;;;5098048;28;20035;-48
2021/07/30 09:07:55;;;;;;;8.40;6.90;;;24.80;65.30;;;;;;5082928;28;20043;-48
2021/07/30 09:10:28;;;;;;;7.28;6.55;;;24.80;65.30;;;;;;5101414;28;20044;-48
2021/07/30 09:13:13;;;;;;;7.97;6.65;;;24.80;65.40;;;;;;5102783;28;20043;-51
2021/07/30 09:15:39;;;;;;;8.52;6.75;;;24.80;65.40;;;;;;5102895;28;20012;-49
2021/07/30 09:18:05;;;;;;;7.15;6.45;;;24.80;65.40;;;;;;5084929;28;20036;-47
2021/07/30 09:20:32;;;;;;;7.43;6.72;;;24.80;65.50;;;;;;5102654;28;20028;-48
2021/07/30 09:22:58;;;;;;;7.95;7.07;;;24.80;65.50;;;;;;5102914;28;20055;-46
2021/07/30 09:25:34;;;;;;;9.10;6.90;;;24.80;65.50;;;;;;5102606;28;20032;-49
2021/07/30 09:28:07;;;;;;;6.88;6.18;;;24.80;65.50;;;;;;5102943;28;20035;-53
2021/07/30 09:30:33;;;;;;;8.13;7.00;;;24.70;65.40;;;;;;5102268;28;20032;-52
2021/07/30 09:33:00;;;;;;;10.38;6.57;;;24.80;65.50;;;;;;5106100;28;20031;-49
2021/07/30 09:35:26;;;;;;;8.55;7.30;;;24.70;65.40;;;;;;5106770;28;20090;-51
2021/07/30 09:38:17;;;;;;;6.90;6.20;;;24.70;65.50;;;;;;5095497;28;20104;-48
2021/07/30 09:40:44;;;;;;;7.97;6.40;;;24.80;65.70;;;;;;5106321;28;20028;-48
2021/07/30 09:43:23;;;;;;;7.75;6.78;;;24.70;65.50;;;;;;5106453;28;20472;-48
2021/07/30 09:45:51;;;;;;;7.75;6.45;;;24.70;65.50;;;;;;5106338;28;20063;-47
2021/07/30 09:48:21;;;;;;;7.78;6.80;;;24.70;65.40;;;;;;5088424;28;20035;-50
2021/07/30 09:50:47;;;;;;;7.07;6.38;;;24.70;65.40;;;;;;5051264;28;20033;-47
2021/07/30 09:53:14;;;;;;;7.88;7.10;;;24.70;65.50;;;;;;5078059;28;20053;-47
2021/07/30 09:55:40;;;;;;;;;;;24.70;65.50;;;;;;5088566;28;20054;-48
2021/07/30 09:58:06;;;;;;;7.50;6.35;;;24.70;65.40;;;;;;5106124;28;20356;-46
2021/07/30 10:00:33;;;;;;;7.45;6.65;;;24.70;65.50;;;;;;5087481;28;20074;-47
2021/07/30 10:03:01;;;;;;;7.35;6.43;;;24.70;65.50;;;;;;5087849;28;20036;-47
2021/07/30 10:05:27;;;;;;;7.30;6.60;;;24.70;65.50;;;;;;5105755;28;20038;-47
2021/07/30 10:07:53;;;;;;;6.85;6.15;;;24.70;65.50;;;;;;5087651;28;20024;-48
2021/07/30 10:12:52;;;;;;;7.15;6.43;;;24.70;65.60;;;;;;5090285;28;20028;-48
2021/07/30 10:15:18;;;;;;;7.55;6.85;;;24.70;65.60;;;;;;5105745;28;20036;-47
2021/07/30 10:17:51;;;;;;;7.13;6.43;;;24.70;65.60;;;;;;5105877;28;20039;-48
2021/07/30 10:20:21;;;;;;;7.53;6.70;;;24.70;65.60;;;;;;5105679;28;20127;-52
2021/07/30 10:22:51;;;;;;;7.47;6.78;;;24.70;65.60;;;;;;5087846;28;20020;-52
2021/07/30 10:25:22;;;;;;;7.68;6.82;;;24.70;65.60;;;;;;5087020;28;20053;-52
2021/07/30 10:27:48;;;;;;;7.97;6.68;;;24.60;65.60;;;;;;5105566;28;20039;-49
2021/07/30 10:30:15;;;;;;;8.30;6.93;;;24.70;65.70;;;;;;5105098;28;20024;-47
2021/07/30 10:32:58;;;;;;;7.25;6.55;;;24.70;65.70;;;;;;5105114;28;20272;-48
2021/07/30 10:35:27;;;;;;;8.30;6.70;;;24.70;65.60;;;;;;5105429;28;20059;-46
2021/07/30 10:38:23;;;;;;;8.98;6.72;;;24.60;65.60;;;;;;5105337;28;20024;-47
2021/07/30 10:40:58;;;;;;;6.55;5.93;;;24.60;65.60;;;;;;5104702;28;20028;-48
2021/07/30 10:43:27;;;;;;;7.65;6.85;;;24.70;65.70;;;;;;5104865;28;20116;-47
2021/07/30 10:46:08;;;;;;;7.25;6.55;;;24.60;65.70;;;;;;5092686;28;20016;-53
2021/07/30 10:48:43;;;;;;;7.35;6.65;;;24.60;65.70;;;;;;5094710;28;20029;-48
2021/07/30 10:51:24;;;;;;;7.03;6.32;;;24.60;65.80;;;;;;5089944;28;20032;-50
2021/07/30 10:54:10;;;;;;;7.47;6.75;;;24.60;65.80;;;;;;5090462;28;20085;-50
2021/07/30 10:56:41;;;;;;;7.70;6.65;;;24.60;65.80;;;;;;5077867;28;20070;-48
2021/07/30 10:59:07;;;;;;;8.27;6.90;;;24.60;65.80;;;;;;5099197;28;20031;-46
2021/07/30 11:01:36;;;;;;;8.13;6.85;;;24.60;65.80;;;;;;5095986;28;20135;-46
2021/07/30 11:04:03;;;;;;;7.55;6.53;;;24.60;66.60;;;;;;5104526;28;20038;-46
2021/07/30 11:06:42;;;;;;;7.18;6.47;;;24.60;65.90;;;;;;5103675;28;20048;-52
2021/07/30 11:09:09;;;;;;;7.15;6.38;;;24.60;65.90;;;;;;5104404;28;20036;-54
2021/07/30 11:12:17;;;;;;;7.55;6.78;;;24.60;66.00;;;;;;5104425;28;20060;-53
2021/07/30 11:14:46;;;;;;;6.80;6.20;;;24.60;66.10;;;;;;5085308;28;20097;-56
2021/07/30 11:17:12;;;;;;;7.53;6.72;;;24.60;66.10;;;;;;5086351;28;20032;-50
2021/07/30 11:19:42;;;;;;;7.60;6.80;;;24.60;66.10;;;;;;5104444;28;20028;-50
2021/07/30 11:22:13;;;;;;;7.18;6.47;;;24.60;66.10;;;;;;5071009;28;20031;-50
2021/07/30 11:24:45;;;;;;;7.18;6.47;;;24.60;66.00;;;;;;5104176;28;20053;-55
2021/07/30 11:27:13;;;;;;;7.22;6.32;;;24.60;66.10;;;;;;5104231;28;20532;-53
2021/07/30 11:29:49;;;;;;;6.90;6.20;;;24.60;66.10;;;;;;5104568;28;20020;-54
2021/07/30 11:32:19;;;;;;;7.78;6.90;;;24.60;66.10;;;;;;5103968;28;20024;-53
2021/07/30 11:34:47;;;;;;;7.88;7.07;;;24.60;66.10;;;;;;5104382;28;20028;-47
2021/07/30 11:37:18;;;;;;;6.88;6.18;;;24.60;66.10;;;;;;5102360;28;20016;-48
2021/07/30 11:39:48;;;;;;;7.50;6.70;;;24.60;66.10;;;;;;5083011;28;20043;-50
2021/07/30 11:42:22;;;;;;;7.25;6.55;;;24.60;66.10;;;;;;5085847;28;20016;-49
2021/07/30 11:44:52;;;;;;;7.80;7.00;;;24.60;66.20;;;;;;5083915;28;20683;-52
2021/07/30 11:47:19;;;;;;;7.88;7.07;;;24.60;66.20;;;;;;5088571;28;20058;-52
2021/07/30 11:49:46;;;;;;;7.32;6.60;;;24.60;66.10;;;;;;5069614;28;20029;-53
2021/07/30 11:52:19;;;;;;;7.28;6.57;;;24.60;66.20;;;;;;5098377;28;20032;-53
2021/07/30 11:54:45;;;;;;;7.65;6.85;;;24.50;66.20;;;;;;5101438;28;20417;-54
2021/07/30 11:57:11;;;;;;;7.30;6.55;;;24.50;66.20;;;;;;5101281;28;20053;-50
2021/07/30 11:59:44;;;;;;;7.20;6.50;;;24.50;66.20;;;;;;5103186;28;20032;-53
2021/07/30 12:02:11;;;;;;;7.85;6.90;;;24.60;66.30;;;;;;5084031;28;20639;-49
2021/07/30 12:04:37;;;;;;;7.70;6.97;;;24.50;66.30;;;;;;5097866;28;20138;-48
2021/07/30 12:07:17;;;;;;;9.05;6.80;;;24.60;66.50;;;;;;5084739;28;20042;-50
2021/07/30 12:09:45;;;;;;;7.63;6.72;;;24.60;67.20;;;;;;5086471;28;20079;-46
2021/07/30 12:12:13;;;;;;;7.35;6.65;;;24.60;66.40;;;;;;5085566;28;20084;-53
2021/07/30 12:14:39;;;;;;;7.65;6.82;;;24.60;66.30;;;;;;5084495;28;20053;-47
2021/07/30 12:17:05;;;;;;;7.13;6.43;;;24.60;66.40;;;;;;5103021;28;20094;-52
2021/07/30 12:21:05;;;;;;;8.80;6.95;;;24.60;66.30;;;;;;5079211;28;20426;-36
2021/07/30 12:23:33;;;;;;;7.68;6.88;;;24.60;66.60;;;;;;5079086;28;20029;-36
2021/07/30 12:26:00;;;;;;;11.30;7.07;;;24.60;66.50;;;;;;5078151;28;20029;-36
2021/07/30 12:28:27;;;;;;;8.60;6.82;;;24.60;66.80;;;;;;5078057;28;20017;-36
2021/07/30 12:30:53;;;;;;;7.10;6.28;;;24.50;66.90;;;;;;5088247;28;20090;-36
2021/07/30 12:33:27;;;;;;;10.38;6.68;;;24.60;67.70;;;;;;5079141;28;20080;-37
2021/07/30 12:36:10;;;;;;;7.75;6.90;;;24.50;66.90;;;;;;5076747;28;20027;-35
2021/07/30 12:39:09;;;;;;;9.55;7.03;;;24.60;67.10;;;;;;5085754;28;20036;-35
2021/07/30 12:41:35;;;;;;;;;;;24.60;69.30;;;;;;5018190;28;20081;-34
2021/07/30 12:44:09;;;;;;;8.18;7.07;;;24.60;69.60;;;;;;5020376;28;19913;-34
2021/07/30 12:46:39;;;;;;;10.35;7.95;;;24.70;69.70;;;;;;5035082;28;20021;-34
2021/07/30 12:49:07;;;;;;;9.20;7.03;;;24.70;69.60;;;;;;5026860;28;20022;-35
2021/07/30 12:51:33;;;;;;;;;;;24.70;70.40;;;;;;5028141;28;20042;-35